createdAt,value
2018-03-04T00:00:40.371Z,107.67
2018-03-04T00:03:08.661Z,108.77
2018-03-04T00:05:37.675Z,125.80
2018-03-04T00:08:05.955Z,125.73
2018-03-04T00:10:34.263Z,122.63
2018-03-04T00:13:02.500Z,113.80
2018-03-04T00:15:30.832Z,126.90
2018-03-04T00:17:59.276Z,121.53
2018-03-04T00:20:27.559Z,130.27
2018-03-04T00:22:55.900Z,124.90
2018-03-04T00:25:25.144Z,120.77
2018-03-04T00:27:53.570Z,134.93
2018-03-04T00:30:22.648Z,127.23
2018-03-04T00:32:51.750Z,124.17
2018-03-04T00:35:20.027Z,137.90
2018-03-04T00:37:49.102Z,124.43
2018-03-04T00:40:18.156Z,138.07
2018-03-04T00:42:46.499Z,126.70
2018-03-04T00:45:15.553Z,129.97
2018-03-04T00:47:43.833Z,123.07
2018-03-04T00:50:12.265Z,110.10
2018-03-04T00:52:40.531Z,126.37
2018-03-04T00:55:09.563Z,120.70
2018-03-04T00:57:37.835Z,124.77
2018-03-04T01:00:07.843Z,123.03
2018-03-04T01:02:36.111Z,130.73
2018-03-04T01:05:04.407Z,131.63
2018-03-04T01:07:32.671Z,111.73
2018-03-04T01:10:00.937Z,124.40
2018-03-04T01:12:29.338Z,132.60
2018-03-04T01:14:57.619Z,133.87
2018-03-04T01:17:25.905Z,133.07
2018-03-04T01:19:54.171Z,128.37
2018-03-04T01:22:22.507Z,132.87
2018-03-04T01:24:50.844Z,135.77
2018-03-04T01:27:19.291Z,132.70
2018-03-04T01:29:47.562Z,129.00
2018-03-04T01:32:15.884Z,128.80
2018-03-04T01:34:44.136Z,137.57
2018-03-04T01:37:12.431Z,134.73
2018-03-04T01:39:40.700Z,134.07
2018-03-04T01:42:09.751Z,134.20
2018-03-04T01:44:38.020Z,125.10
2018-03-04T01:47:06.318Z,132.33
2018-03-04T01:49:34.595Z,135.80
2018-03-04T01:52:02.900Z,131.57
2018-03-04T01:54:31.632Z,135.57
2018-03-04T01:56:59.911Z,127.27
2018-03-04T01:59:28.180Z,134.30
2018-03-04T02:01:56.462Z,131.37
2018-03-04T02:04:25.004Z,127.63
2018-03-04T02:06:53.241Z,128.50
2018-03-04T02:09:21.517Z,124.30
2018-03-04T02:11:49.779Z,129.03
2018-03-04T02:14:18.823Z,127.80
2018-03-04T02:16:47.178Z,129.53
2018-03-04T02:19:15.420Z,132.93
2018-03-04T02:21:43.732Z,133.60
2018-03-04T02:24:12.087Z,126.97
2018-03-04T02:26:41.900Z,129.40
2018-03-04T02:29:10.258Z,131.07
2018-03-04T02:31:38.535Z,130.63
2018-03-04T02:34:06.791Z,122.57
2018-03-04T02:36:35.123Z,130.37
2018-03-04T02:39:03.424Z,130.07
2018-03-04T02:41:31.810Z,123.50
2018-03-04T02:44:00.148Z,142.00
2018-03-04T02:46:29.168Z,138.83
2018-03-04T02:48:57.443Z,127.93
2018-03-04T02:51:25.741Z,124.07
2018-03-04T02:53:54.012Z,135.70
2018-03-04T02:56:22.275Z,127.30
2018-03-04T02:58:50.569Z,133.37
2018-03-04T03:01:18.808Z,120.87
2018-03-04T03:03:47.101Z,131.83
2018-03-04T03:06:15.348Z,136.00
2018-03-04T03:08:43.898Z,121.87
2018-03-04T03:11:12.166Z,136.67
2018-03-04T03:13:40.469Z,120.07
2018-03-04T03:16:08.850Z,136.93
2018-03-04T03:18:37.123Z,122.83
2018-03-04T03:21:06.181Z,133.50
2018-03-04T03:23:34.418Z,133.97
2018-03-04T03:26:02.711Z,127.57
2018-03-04T03:28:30.971Z,119.90
2018-03-04T03:30:59.300Z,132.50
2018-03-04T03:33:27.555Z,111.30
2018-03-04T03:35:55.823Z,123.10
2018-03-04T03:38:24.092Z,134.17
2018-03-04T03:40:52.372Z,122.33
2018-03-04T03:43:20.793Z,132.10
2018-03-04T03:45:49.033Z,109.63
2018-03-04T03:48:17.337Z,127.33
2018-03-04T03:50:45.625Z,134.77
2018-03-04T03:53:14.712Z,121.10
2018-03-04T03:55:43.778Z,123.27
2018-03-04T03:58:12.061Z,115.10
2018-03-04T04:00:40.323Z,127.77
2018-03-04T04:03:08.714Z,126.03
2018-03-04T04:05:37.109Z,112.63
2018-03-04T04:08:05.379Z,128.60
2018-03-04T04:10:33.642Z,126.50
2018-03-04T04:13:02.722Z,119.53
2018-03-04T04:15:30.987Z,118.90
2018-03-04T04:17:59.271Z,122.37
2018-03-04T04:20:27.584Z,118.23
2018-03-04T04:22:56.730Z,113.00
2018-03-04T04:25:25.063Z,122.73
2018-03-04T04:27:54.210Z,124.73
2018-03-04T04:30:22.500Z,118.37
2018-03-04T04:32:50.748Z,121.97
2018-03-04T04:35:19.035Z,122.47
2018-03-04T04:37:47.294Z,132.27
2018-03-04T04:40:15.628Z,137.47
2018-03-04T04:42:43.875Z,125.57
2018-03-04T04:45:12.191Z,126.37
2018-03-04T04:47:40.454Z,125.03
2018-03-04T04:50:09.513Z,124.73
2018-03-04T04:52:37.813Z,117.80
2018-03-04T04:55:06.069Z,128.90
2018-03-04T04:57:34.348Z,137.80
2018-03-04T05:00:02.796Z,146.33
2018-03-04T05:02:31.033Z,164.20
2018-03-04T05:04:59.311Z,164.20
2018-03-04T05:07:27.677Z,160.37
2018-03-04T05:09:56.007Z,166.43
2018-03-04T05:12:24.295Z,165.00
2018-03-04T05:14:52.566Z,171.50
2018-03-04T05:17:20.843Z,174.20
2018-03-04T05:19:49.147Z,160.57
2018-03-04T05:22:18.191Z,163.00
2018-03-04T05:24:46.456Z,137.30
2018-03-04T05:27:14.747Z,156.63
2018-03-04T05:29:43.064Z,152.83
2018-03-04T05:32:11.424Z,159.27
2018-03-04T05:34:41.178Z,144.57
2018-03-04T05:37:09.457Z,138.27
2018-03-04T05:39:37.836Z,125.90
2018-03-04T05:42:06.135Z,134.20
2018-03-04T05:44:34.431Z,132.93
2018-03-04T05:47:02.727Z,119.60
2018-03-04T05:49:31.008Z,136.93
2018-03-04T05:52:00.079Z,129.33
2018-03-04T05:54:28.379Z,143.90
2018-03-04T05:56:57.426Z,148.50
2018-03-04T05:59:25.696Z,141.00
2018-03-04T06:01:53.951Z,150.67
2018-03-04T06:04:22.227Z,188.80
2018-03-04T06:06:50.523Z,180.13
2018-03-04T06:09:18.839Z,183.27
2018-03-04T06:11:47.162Z,167.03
2018-03-04T06:14:15.434Z,140.97
2018-03-04T06:16:43.715Z,145.80
2018-03-04T06:19:11.974Z,138.67
2018-03-04T06:21:40.317Z,131.73
2018-03-04T06:24:09.529Z,133.33
2018-03-04T06:26:38.999Z,133.17
2018-03-04T06:29:07.270Z,134.97
2018-03-04T06:31:35.754Z,145.33
2018-03-04T06:34:04.036Z,142.13
2018-03-04T06:36:32.316Z,135.77
2018-03-04T06:39:00.607Z,164.90
2018-03-04T06:41:28.960Z,160.47
2018-03-04T06:43:58.019Z,173.33
2018-03-04T06:46:26.288Z,158.33
2018-03-04T06:48:54.677Z,160.73
2018-03-04T06:51:23.049Z,172.37
2018-03-04T06:53:51.463Z,166.43
2018-03-04T06:56:19.734Z,154.90
2018-03-04T06:58:47.982Z,151.27
2018-03-04T07:01:16.284Z,145.20
2018-03-04T07:03:45.367Z,156.77
2018-03-04T07:06:13.773Z,157.73
2018-03-04T07:08:41.998Z,162.57
2018-03-04T07:11:10.285Z,154.57
2018-03-04T07:13:38.559Z,170.60
2018-03-04T07:16:06.882Z,150.43
2018-03-04T07:18:35.135Z,132.23
2018-03-04T07:21:03.428Z,124.87
2018-03-04T07:23:31.738Z,143.07
2018-03-04T07:26:00.046Z,128.77
2018-03-04T07:28:28.512Z,111.87
2018-03-04T07:30:56.787Z,125.03
2018-03-04T07:33:25.123Z,112.80
2018-03-04T07:35:53.351Z,115.83
2018-03-04T07:38:21.615Z,115.47
2018-03-04T07:40:49.888Z,116.53
2018-03-04T07:43:18.407Z,105.87
2018-03-04T07:45:46.799Z,98.73
2018-03-04T07:48:16.624Z,112.00
2018-03-04T07:50:44.993Z,101.90
2018-03-04T07:53:13.285Z,98.90
2018-03-04T07:55:42.302Z,104.40
2018-03-04T07:58:10.619Z,97.90
2018-03-04T08:00:39.720Z,101.43
2018-03-04T08:03:09.380Z,99.47
2018-03-04T08:05:37.905Z,94.33
2018-03-04T08:08:06.181Z,101.13
2018-03-04T08:10:34.471Z,99.50
2018-03-04T08:13:03.491Z,96.03
2018-03-04T08:15:31.802Z,95.87
2018-03-04T08:18:00.868Z,79.10
2018-03-04T08:20:29.192Z,80.83
2018-03-04T08:22:58.293Z,102.30
2018-03-04T08:25:32.175Z,96.70
2018-03-04T08:28:12.443Z,93.67
2018-03-04T08:30:40.795Z,94.50
2018-03-04T08:33:09.197Z,92.37
2018-03-04T08:35:37.469Z,100.20
2018-03-04T08:38:05.726Z,109.13
2018-03-04T08:40:34.022Z,100.47
2018-03-04T08:43:03.118Z,105.43
2018-03-04T08:45:32.199Z,98.07
2018-03-04T08:48:00.587Z,99.83
2018-03-04T08:50:28.920Z,102.70
2018-03-04T08:52:57.191Z,86.33
2018-03-04T08:55:25.464Z,82.47
2018-03-04T08:57:53.760Z,82.17
2018-03-04T09:00:22.007Z,84.27
2018-03-04T09:02:50.335Z,78.83
2018-03-04T09:05:18.768Z,79.33
2018-03-04T09:07:47.999Z,80.50
2018-03-04T09:10:16.251Z,85.30
2018-03-04T09:12:44.535Z,89.40
2018-03-04T09:15:12.911Z,85.27
2018-03-04T09:17:41.196Z,81.60
2018-03-04T09:20:09.498Z,87.37
2018-03-04T09:22:37.889Z,80.57
2018-03-04T09:25:06.905Z,78.67
2018-03-04T09:27:35.198Z,69.87
2018-03-04T09:30:03.488Z,88.87
2018-03-04T09:32:32.548Z,86.97
2018-03-04T09:35:00.883Z,77.17
2018-03-04T09:37:29.136Z,93.43
2018-03-04T09:39:57.442Z,89.13
2018-03-04T09:42:26.473Z,73.40
2018-03-04T09:44:54.731Z,78.03
2018-03-04T09:47:22.979Z,85.63
2018-03-04T09:49:51.278Z,95.70
2018-03-04T09:52:19.582Z,95.67
2018-03-04T09:54:47.975Z,106.73
2018-03-04T09:57:17.001Z,84.57
2018-03-04T09:59:45.251Z,99.70
2018-03-04T10:02:15.058Z,96.63
2018-03-04T10:04:43.300Z,90.53
2018-03-04T10:07:11.560Z,76.30
2018-03-04T10:09:39.812Z,82.83
2018-03-04T10:12:08.940Z,76.27
2018-03-04T10:14:37.184Z,63.40
2018-03-04T10:17:06.237Z,66.23
2018-03-04T10:19:34.552Z,63.37
2018-03-04T10:22:03.605Z,67.90
2018-03-04T10:24:31.877Z,67.27
2018-03-04T10:27:00.120Z,67.30
2018-03-04T10:29:28.383Z,69.90
2018-03-04T10:31:57.432Z,67.87
2018-03-04T10:34:27.228Z,73.30
2018-03-04T10:36:55.495Z,65.53
2018-03-04T10:39:23.787Z,64.93
2018-03-04T10:41:52.072Z,69.20
2018-03-04T10:44:20.368Z,65.00
2018-03-04T10:46:49.410Z,65.57
2018-03-04T10:49:17.692Z,71.37
2018-03-04T10:51:45.983Z,65.77
2018-03-04T10:54:14.238Z,59.10
2018-03-04T10:56:42.496Z,69.47
2018-03-04T10:59:10.793Z,62.03
2018-03-04T11:01:39.110Z,67.43
2018-03-04T11:04:07.396Z,63.80
2018-03-04T11:06:35.698Z,61.03
2018-03-04T11:09:04.823Z,63.83
2018-03-04T11:11:33.104Z,62.50
2018-03-04T11:14:01.374Z,62.50
2018-03-04T11:16:29.676Z,60.90
2018-03-04T11:18:57.927Z,64.40
2018-03-04T11:21:26.242Z,69.50
2018-03-04T11:23:55.287Z,61.93
2018-03-04T11:26:23.557Z,49.03
2018-03-04T11:28:51.973Z,58.43
2018-03-04T11:31:20.244Z,58.63
2018-03-04T11:33:48.549Z,57.90
2018-03-04T11:36:16.806Z,57.40
2018-03-04T11:38:45.074Z,59.07
2018-03-04T11:41:13.504Z,56.80
2018-03-04T11:43:41.787Z,54.17
2018-03-04T11:46:10.075Z,49.23
2018-03-04T11:48:38.375Z,54.60
2018-03-04T11:51:06.728Z,56.27
2018-03-04T11:53:34.992Z,54.60
2018-03-04T11:56:03.306Z,51.10
2018-03-04T11:58:31.559Z,57.70
2018-03-04T12:00:59.831Z,61.43
2018-03-04T12:03:28.148Z,55.07
2018-03-04T12:05:57.186Z,56.27
2018-03-04T12:08:25.599Z,58.37
2018-03-04T12:10:53.834Z,53.90
2018-03-04T12:13:22.172Z,55.70
2018-03-04T12:15:50.500Z,52.80
2018-03-04T12:18:18.924Z,56.63
2018-03-04T12:20:47.974Z,54.73
2018-03-04T12:23:16.242Z,48.57
2018-03-04T12:25:44.607Z,56.07
2018-03-04T12:28:12.900Z,50.53
2018-03-04T12:30:41.215Z,50.10
2018-03-04T12:33:09.578Z,48.33
2018-03-04T12:35:37.992Z,49.13
2018-03-04T12:38:07.047Z,52.47
2018-03-04T12:40:35.350Z,47.67
2018-03-04T12:43:03.697Z,41.47
2018-03-04T12:45:31.969Z,45.53
2018-03-04T12:48:00.215Z,42.43
2018-03-04T12:50:28.483Z,41.27
2018-03-04T12:52:56.769Z,39.90
2018-03-04T12:55:25.091Z,41.50
2018-03-04T12:57:54.120Z,46.60
2018-03-04T13:00:22.664Z,45.50
2018-03-04T13:02:51.698Z,45.63
2018-03-04T13:05:19.988Z,41.13
2018-03-04T13:07:48.236Z,42.97
2018-03-04T13:10:16.500Z,43.80
2018-03-04T13:12:44.756Z,40.80
2018-03-04T13:15:13.808Z,41.67
2018-03-04T13:17:42.173Z,38.37
2018-03-04T13:20:10.514Z,36.97
2018-03-04T13:22:39.695Z,39.10
2018-03-04T13:25:08.722Z,35.87
2018-03-04T13:27:37.016Z,37.80
2018-03-04T13:30:05.298Z,34.67
2018-03-04T13:32:33.626Z,33.73
2018-03-04T13:35:02.645Z,33.33
2018-03-04T13:37:30.935Z,30.87
2018-03-04T13:39:59.212Z,33.03
2018-03-04T13:42:27.491Z,37.00
2018-03-04T13:44:55.751Z,33.80
2018-03-04T13:47:24.036Z,32.70
2018-03-04T13:49:52.309Z,34.27
2018-03-04T13:52:20.701Z,37.00
2018-03-04T13:54:49.045Z,32.57
2018-03-04T13:57:17.354Z,30.90
2018-03-04T13:59:45.608Z,34.97
2018-03-04T14:02:13.910Z,32.40
2018-03-04T14:04:42.283Z,30.80
2018-03-04T14:07:12.545Z,34.17
2018-03-04T14:09:40.911Z,31.00
2018-03-04T14:12:09.288Z,31.40
2018-03-04T14:14:37.858Z,32.83
2018-03-04T14:17:06.114Z,30.53
2018-03-04T14:19:34.376Z,34.83
2018-03-04T14:22:02.646Z,30.77
2018-03-04T14:24:30.941Z,31.60
2018-03-04T14:26:59.375Z,37.53
2018-03-04T14:29:27.664Z,33.17
2018-03-04T14:31:55.947Z,32.33
2018-03-04T14:34:24.291Z,27.57
2018-03-04T14:36:53.364Z,26.13
2018-03-04T14:39:23.302Z,27.37
2018-03-04T14:41:51.568Z,29.43
2018-03-04T14:44:19.877Z,24.73
2018-03-04T14:46:48.126Z,26.87
2018-03-04T14:49:16.568Z,29.20
2018-03-04T14:51:45.612Z,24.73
2018-03-04T14:54:13.898Z,28.87
2018-03-04T14:56:42.207Z,21.30
2018-03-04T14:59:11.277Z,22.23
2018-03-04T15:01:39.607Z,22.20
2018-03-04T15:04:08.632Z,25.17
2018-03-04T15:06:36.919Z,21.67
2018-03-04T15:09:05.186Z,22.63
2018-03-04T15:11:33.465Z,24.97
2018-03-04T15:14:01.742Z,25.23
2018-03-04T15:16:29.995Z,24.53
2018-03-04T15:18:58.459Z,23.33
2018-03-04T15:21:26.813Z,20.30
2018-03-04T15:23:55.121Z,19.10
2018-03-04T15:26:23.468Z,21.03
2018-03-04T15:28:51.736Z,19.27
2018-03-04T15:31:20.938Z,19.30
2018-03-04T15:33:49.984Z,20.97
2018-03-04T15:36:18.234Z,19.43
2018-03-04T15:38:46.647Z,16.60
2018-03-04T15:41:14.956Z,21.90
2018-03-04T15:43:43.338Z,21.17
2018-03-04T15:46:11.673Z,20.13
2018-03-04T15:48:39.964Z,19.30
2018-03-04T15:51:08.250Z,19.63
2018-03-04T15:53:36.550Z,21.43
2018-03-04T15:56:04.939Z,20.43
2018-03-04T15:58:33.374Z,22.23
2018-03-04T16:01:02.454Z,20.60
2018-03-04T16:03:30.756Z,23.37
2018-03-04T16:05:59.038Z,20.97
2018-03-04T16:08:27.314Z,19.07
2018-03-04T16:10:55.568Z,21.40
2018-03-04T16:13:24.017Z,19.50
2018-03-04T16:15:52.419Z,19.97
2018-03-04T16:18:20.748Z,19.83
2018-03-04T16:20:49.030Z,19.73
2018-03-04T16:23:17.302Z,19.53
2018-03-04T16:25:45.604Z,17.87
2018-03-04T16:28:13.947Z,18.07
2018-03-04T16:30:42.286Z,17.23
2018-03-04T16:33:11.534Z,21.97
2018-03-04T16:35:39.862Z,21.57
2018-03-04T16:38:08.144Z,25.37
2018-03-04T16:40:36.429Z,20.93
2018-03-04T16:43:05.478Z,19.33
2018-03-04T16:45:33.791Z,21.10
2018-03-04T16:48:02.090Z,20.83
2018-03-04T16:50:31.118Z,20.83
2018-03-04T16:52:59.383Z,21.33
2018-03-04T16:55:27.675Z,19.23
2018-03-04T16:57:55.994Z,24.07
2018-03-04T17:00:24.377Z,17.50
2018-03-04T17:02:52.655Z,24.53
2018-03-04T17:05:21.841Z,23.20
2018-03-04T17:07:51.524Z,27.87
2018-03-04T17:10:19.804Z,27.37
2018-03-04T17:12:48.892Z,29.17
2018-03-04T17:15:17.287Z,26.57
2018-03-04T17:17:45.575Z,29.10
2018-03-04T17:20:14.612Z,29.37
2018-03-04T17:22:42.869Z,31.70
2018-03-04T17:25:11.179Z,29.07
2018-03-04T17:27:40.283Z,34.63
2018-03-04T17:30:08.559Z,43.30
2018-03-04T17:32:36.819Z,41.63
2018-03-04T17:35:05.149Z,41.03
2018-03-04T17:37:33.473Z,38.50
2018-03-04T17:40:01.670Z,35.13
2018-03-04T17:42:30.069Z,35.60
2018-03-04T17:44:59.092Z,37.90
2018-03-04T17:47:27.436Z,39.13
2018-03-04T17:49:56.473Z,38.60
2018-03-04T17:52:24.786Z,37.10
2018-03-04T17:54:53.305Z,51.23
2018-03-04T17:57:21.601Z,53.07
2018-03-04T17:59:49.848Z,38.33
2018-03-04T18:02:18.901Z,38.33
2018-03-04T18:04:47.239Z,40.07
2018-03-04T18:07:15.529Z,37.03
2018-03-04T18:09:43.790Z,36.23
2018-03-04T18:12:12.084Z,33.07
2018-03-04T18:14:40.341Z,27.63
2018-03-04T18:17:08.651Z,29.73
2018-03-04T18:19:37.716Z,33.77
2018-03-04T18:22:13.175Z,30.50
2018-03-04T18:24:41.439Z,36.93
2018-03-04T18:27:09.812Z,34.47
2018-03-04T18:29:38.139Z,38.63
2018-03-04T18:32:06.466Z,31.30
2018-03-04T18:34:34.755Z,36.10
2018-03-04T18:37:03.000Z,35.97
2018-03-04T18:39:31.367Z,38.37
2018-03-04T18:41:59.647Z,37.23
2018-03-04T18:44:27.931Z,36.20
2018-03-04T18:46:56.193Z,37.37
2018-03-04T18:49:24.473Z,35.17
2018-03-04T18:51:52.750Z,43.40
2018-03-04T18:54:21.025Z,39.23
2018-03-04T18:56:49.279Z,36.57
2018-03-04T18:59:17.554Z,33.63
2018-03-04T19:01:45.816Z,32.73
2018-03-04T19:04:14.103Z,34.33
2018-03-04T19:06:43.381Z,34.90
2018-03-04T19:09:11.675Z,34.90
2018-03-04T19:11:40.269Z,38.70
2018-03-04T19:14:09.723Z,39.70
2018-03-04T19:16:38.176Z,41.67
2018-03-04T19:19:06.445Z,40.10
2018-03-04T19:21:34.756Z,42.33
2018-03-04T19:24:03.015Z,45.70
2018-03-04T19:26:31.286Z,46.80
2018-03-04T19:28:59.602Z,48.27
2018-03-04T19:31:28.022Z,46.00
2018-03-04T19:33:56.306Z,47.77
2018-03-04T19:36:24.568Z,46.60
2018-03-04T19:38:52.847Z,47.70
2018-03-04T19:41:21.354Z,57.30
2018-03-04T19:43:49.594Z,52.30
2018-03-04T19:46:17.880Z,51.43
2018-03-04T19:48:46.147Z,53.07
2018-03-04T19:51:14.410Z,49.30
2018-03-04T19:53:43.594Z,50.33
2018-03-04T19:56:11.875Z,52.03
2018-03-04T19:58:40.179Z,38.77
2018-03-04T20:01:08.440Z,52.40
2018-03-04T20:03:36.752Z,56.40
2018-03-04T20:06:05.053Z,46.70
2018-03-04T20:08:33.437Z,53.67
2018-03-04T20:11:02.572Z,57.30
2018-03-04T20:13:30.918Z,55.03
2018-03-04T20:15:59.984Z,54.23
2018-03-04T20:18:28.879Z,61.23
2018-03-04T20:20:57.164Z,63.77
2018-03-04T20:23:26.207Z,70.87
2018-03-04T20:25:54.533Z,65.47
2018-03-04T20:28:22.827Z,77.23
2018-03-04T20:30:51.452Z,83.93
2018-03-04T20:33:19.727Z,81.33
2018-03-04T20:35:47.991Z,86.47
2018-03-04T20:38:16.330Z,65.47
2018-03-04T20:40:44.602Z,57.27
2018-03-04T20:43:13.628Z,62.00
2018-03-04T20:45:41.918Z,67.33
2018-03-04T20:48:10.263Z,58.37
2018-03-04T20:50:38.682Z,66.90
2018-03-04T20:53:06.949Z,66.97
2018-03-04T20:55:35.352Z,57.43
2018-03-04T20:58:03.672Z,66.60
2018-03-04T21:00:31.967Z,72.47
2018-03-04T21:03:00.292Z,69.60
2018-03-04T21:05:28.587Z,60.57
2018-03-04T21:07:57.618Z,72.63
2018-03-04T21:10:25.958Z,66.93
2018-03-04T21:12:54.318Z,67.20
2018-03-04T21:15:23.379Z,68.23
2018-03-04T21:17:51.675Z,73.20
2018-03-04T21:20:19.981Z,65.93
2018-03-04T21:22:49.050Z,66.83
2018-03-04T21:25:17.309Z,62.50
2018-03-04T21:27:45.596Z,69.20
2018-03-04T21:30:13.883Z,73.87
2018-03-04T21:32:42.186Z,63.27
2018-03-04T21:35:11.208Z,66.20
2018-03-04T21:37:39.462Z,65.30
2018-03-04T21:40:07.755Z,67.00
2018-03-04T21:42:36.051Z,73.23
2018-03-04T21:45:04.301Z,71.77
2018-03-04T21:47:32.598Z,66.90
2018-03-04T21:50:00.852Z,69.00
2018-03-04T21:52:29.208Z,69.47
2018-03-04T21:54:57.468Z,55.70
2018-03-04T21:57:25.757Z,52.60
2018-03-04T21:59:56.736Z,50.37
2018-03-04T22:02:24.996Z,44.63
2018-03-04T22:04:53.277Z,43.17
2018-03-04T22:07:21.536Z,39.33
2018-03-04T22:09:49.781Z,32.60
2018-03-04T22:12:18.068Z,33.10
2018-03-04T22:14:46.348Z,28.23
2018-03-04T22:17:14.606Z,26.20
2018-03-04T22:19:42.975Z,22.40
2018-03-04T22:22:12.249Z,20.77
2018-03-04T22:24:40.498Z,21.37
2018-03-04T22:27:08.772Z,19.80
2018-03-04T22:29:37.045Z,15.00
2018-03-04T22:32:05.380Z,16.43
2018-03-04T22:34:33.599Z,14.73
2018-03-04T22:37:01.877Z,11.77
2018-03-04T22:39:30.134Z,11.43
2018-03-04T22:41:58.418Z,10.30
2018-03-04T22:44:26.754Z,10.47
2018-03-04T22:46:54.995Z,10.63
2018-03-04T22:49:23.252Z,11.93
2018-03-04T22:51:51.499Z,9.90
2018-03-04T22:54:19.783Z,11.13
2018-03-04T22:56:48.037Z,9.93
2018-03-04T22:59:16.263Z,9.37
2018-03-04T23:01:44.532Z,8.67
2018-03-04T23:04:12.876Z,8.37
2018-03-04T23:06:41.256Z,8.43
2018-03-04T23:09:10.286Z,8.57
2018-03-04T23:11:38.572Z,9.43
2018-03-04T23:14:06.823Z,8.60
2018-03-04T23:16:35.089Z,9.23
2018-03-04T23:19:03.327Z,9.10
2018-03-04T23:21:32.357Z,7.87
2018-03-04T23:24:00.846Z,8.83
2018-03-04T23:26:29.084Z,9.17
2018-03-04T23:28:58.078Z,7.70
2018-03-04T23:31:27.078Z,8.63
2018-03-04T23:33:56.091Z,7.83
2018-03-04T23:36:25.141Z,8.50
2018-03-04T23:38:53.418Z,7.70
2018-03-04T23:41:22.420Z,8.73
2018-03-04T23:43:51.424Z,9.17
2018-03-04T23:46:20.434Z,6.73
2018-03-04T23:48:48.643Z,7.37
2018-03-04T23:51:17.695Z,6.60
2018-03-04T23:53:45.931Z,8.53
2018-03-04T23:56:14.191Z,8.03
2018-03-04T23:58:42.435Z,8.60
